createdAt,value
2022-11-09T00:01:40.626Z,100008.06
2022-11-09T00:04:27.783Z,100014.69
2022-11-09T00:07:15.159Z,100008.47
2022-11-09T00:10:02.519Z,100007.63
2022-11-09T00:12:51.011Z,100014.13
2022-11-09T00:15:37.845Z,100007.22
2022-11-09T00:18:24.426Z,100010.91
2022-11-09T00:21:14.403Z,100003.97
2022-11-09T00:24:01.043Z,100008.47
2022-11-09T00:26:48.306Z,100003.41
2022-11-09T00:29:36.540Z,99990.19
2022-11-09T00:32:27.625Z,99993.56
2022-11-09T00:35:14.855Z,99994.84
2022-11-09T00:38:01.996Z,99997.91
2022-11-09T00:40:48.891Z,99987.34
2022-11-09T00:43:36.660Z,99979.19
2022-11-09T00:46:25.449Z,99979.72
2022-11-09T00:49:12.596Z,99983.50
2022-11-09T00:51:59.510Z,99980.97
2022-11-09T00:54:47.010Z,99985.63
2022-11-09T00:57:33.867Z,99981.28
2022-11-09T01:00:23.517Z,99976.75
2022-11-09T01:03:11.484Z,99983.66
2022-11-09T01:06:00.660Z,99983.41
2022-11-09T01:08:48.469Z,99981.13
2022-11-09T01:11:36.316Z,99977.31
2022-11-09T01:14:23.428Z,99978.03
2022-11-09T01:17:10.527Z,99973.38
2022-11-09T01:19:58.884Z,99972.53
2022-11-09T01:22:46.207Z,99987.03
2022-11-09T01:25:33.002Z,99978.59
2022-11-09T01:28:20.656Z,99976.75
2022-11-09T01:31:12.120Z,99975.81
2022-11-09T01:33:58.932Z,99984.78
2022-11-09T01:36:51.293Z,99981.59
2022-11-09T01:39:41.959Z,99975.25
2022-11-09T01:42:30.319Z,99975.09
2022-11-09T01:45:26.717Z,99982.16
2022-11-09T01:48:20.265Z,99976.66
2022-11-09T01:51:14.081Z,99986.50
2022-11-09T01:54:10.067Z,99977.50
2022-11-09T01:57:03.921Z,99968.63
2022-11-09T01:59:57.891Z,99965.09
2022-11-09T02:02:49.196Z,99969.47
2022-11-09T02:05:39.182Z,99961.72
2022-11-09T02:08:27.224Z,99962.84
2022-11-09T02:11:18.838Z,99945.81
2022-11-09T02:14:06.777Z,99944.81
2022-11-09T02:16:53.944Z,99947.34
2022-11-09T02:19:40.709Z,99949.03
2022-11-09T02:22:29.211Z,99943.69
2022-11-09T02:25:17.232Z,99950.72
2022-11-09T02:28:04.852Z,99950.16
2022-11-09T02:30:54.642Z,99942.84
2022-11-09T02:33:45.312Z,99938.88
2022-11-09T02:36:32.240Z,99945.34
2022-11-09T02:39:24.775Z,99934.34
2022-11-09T02:42:21.151Z,99931.25
2022-11-09T02:45:11.076Z,99926.19
2022-11-09T02:47:59.056Z,99909.22
2022-11-09T02:50:46.166Z,99915.69
2022-11-09T02:53:33.040Z,99920.03
2022-11-09T02:56:22.459Z,99920.75
2022-11-09T02:59:09.255Z,99915.16
2022-11-09T03:01:56.471Z,99899.63
2022-11-09T03:04:43.380Z,99904.28
2022-11-09T03:07:30.709Z,99899.91
2022-11-09T03:10:18.134Z,99901.59
2022-11-09T03:13:08.007Z,99914.16
2022-11-09T03:15:54.814Z,99913.31
2022-11-09T03:18:42.144Z,99912.31
2022-11-09T03:21:30.100Z,99916.28
2022-11-09T03:24:17.206Z,99928.38
2022-11-09T03:27:03.904Z,99929.38
2022-11-09T03:29:52.456Z,99940.78
2022-11-09T03:32:40.168Z,99945.16
2022-11-09T03:35:28.099Z,99943.47
2022-11-09T03:38:15.359Z,99961.94
2022-11-09T03:41:03.397Z,99955.03
2022-11-09T03:43:51.327Z,99963.66
2022-11-09T03:46:40.101Z,99969.03
2022-11-09T03:49:27.088Z,99962.25
2022-11-09T03:52:14.217Z,99965.53
2022-11-09T03:55:01.155Z,99962.84
2022-11-09T03:57:49.159Z,99961.28
2022-11-09T04:00:36.889Z,99950.84
2022-11-09T04:03:25.854Z,99951.84
2022-11-09T04:06:12.544Z,99958.47
2022-11-09T04:08:59.727Z,99946.22
2022-11-09T04:11:46.533Z,99948.19
2022-11-09T04:14:33.675Z,99960.88
2022-11-09T04:17:20.545Z,99962.00
2022-11-09T04:20:10.427Z,99964.53
2022-11-09T04:22:57.834Z,99968.22
2022-11-09T04:25:44.873Z,99963.41
2022-11-09T04:28:38.018Z,99954.25
2022-11-09T04:31:28.209Z,99951.28
2022-11-09T04:34:17.057Z,99946.50
2022-11-09T04:37:05.896Z,99963.25
2022-11-09T04:39:53.022Z,99972.41
2022-11-09T04:42:40.547Z,99971.72
2022-11-09T04:45:27.676Z,99968.22
2022-11-09T04:48:14.835Z,99970.16
2022-11-09T04:51:02.356Z,99961.97
2022-11-09T04:53:50.964Z,99958.59
2022-11-09T04:56:37.720Z,99957.34
2022-11-09T04:59:25.061Z,99961.28
2022-11-09T05:02:11.846Z,99962.84
2022-11-09T05:04:59.164Z,99965.91
2022-11-09T05:07:45.861Z,99964.94
2022-11-09T05:10:34.720Z,99971.28
2022-11-09T05:13:21.956Z,99977.19
2022-11-09T05:16:09.443Z,99978.16
2022-11-09T05:18:56.338Z,99982.12
2022-11-09T05:21:43.549Z,99978.44
2022-11-09T05:24:29.404Z,99977.47
2022-11-09T05:27:17.765Z,99977.47
2022-11-09T05:30:05.501Z,99990.56
2022-11-09T05:32:52.716Z,99987.47
2022-11-09T05:35:39.767Z,99990.44
2022-11-09T05:38:27.141Z,99987.03
2022-11-09T05:41:14.364Z,99987.19
2022-11-09T05:44:02.840Z,99979.00
2022-11-09T05:46:50.249Z,99974.66
2022-11-09T05:49:37.632Z,99980.84
2022-11-09T05:52:24.340Z,99972.53
2022-11-09T05:55:11.166Z,99960.00
2022-11-09T05:57:57.954Z,99956.88
2022-11-09T06:00:46.220Z,99946.31
2022-11-09T06:03:34.063Z,99947.69
2022-11-09T06:06:21.022Z,99931.91
2022-11-09T06:09:08.433Z,99952.50
2022-11-09T06:11:55.156Z,99963.22
2022-11-09T06:14:42.250Z,99955.19
2022-11-09T06:17:30.275Z,99962.53
2022-11-09T06:20:18.952Z,99967.44
2022-11-09T06:23:05.765Z,99959.56
2022-11-09T06:25:54.096Z,99956.88
2022-11-09T06:28:42.344Z,99946.59
2022-11-09T06:31:30.226Z,99944.75
2022-11-09T06:34:18.789Z,99944.75
2022-11-09T06:37:06.152Z,99925.00
2022-11-09T06:39:52.984Z,99926.53
2022-11-09T06:42:40.050Z,99917.13
2022-11-09T06:45:28.542Z,99923.59
2022-11-09T06:48:15.768Z,99917.41
2022-11-09T06:51:05.145Z,99920.69
2022-11-09T06:53:52.470Z,99930.13
2022-11-09T06:56:39.153Z,99946.88
2022-11-09T06:59:26.521Z,99952.22
2022-11-09T07:02:17.668Z,99953.91
2022-11-09T07:05:05.553Z,99955.19
2022-11-09T07:07:53.958Z,99968.13
2022-11-09T07:10:41.172Z,99972.53
2022-11-09T07:13:28.357Z,99976.75
2022-11-09T07:16:17.335Z,99994.66
2022-11-09T07:19:04.194Z,99989.56
2022-11-09T07:21:51.016Z,99989.28
2022-11-09T07:24:39.242Z,99992.66
2022-11-09T07:27:28.213Z,99996.34
2022-11-09T07:30:15.617Z,99998.19
2022-11-09T07:33:09.065Z,99994.91
2022-11-09T07:35:58.650Z,99997.88
2022-11-09T07:38:45.762Z,100004.38
2022-11-09T07:41:34.994Z,100012.97
2022-11-09T07:44:22.654Z,100004.78
2022-11-09T07:47:11.305Z,100012.69
2022-11-09T07:50:00.548Z,100026.78
2022-11-09T07:52:47.399Z,100024.81
2022-11-09T07:55:35.580Z,100036.34
2022-11-09T07:58:23.510Z,100042.56
2022-11-09T08:01:11.357Z,100046.78
2022-11-09T08:03:58.499Z,100042.84
2022-11-09T08:06:45.722Z,100051.44
2022-11-09T08:09:32.900Z,100043.09
2022-11-09T08:12:19.745Z,100036.31
2022-11-09T08:15:09.365Z,100021.09
2022-11-09T08:18:00.862Z,100026.59
2022-11-09T08:20:48.619Z,100034.91
2022-11-09T08:23:35.998Z,100035.19
2022-11-09T08:26:22.911Z,100029.09
2022-11-09T08:29:09.917Z,100040.50
2022-11-09T08:31:58.468Z,100041.06
2022-11-09T08:34:48.549Z,100042.22
2022-11-09T08:37:35.870Z,100043.87
2022-11-09T08:40:25.750Z,100037.69
2022-11-09T08:43:13.391Z,100041.91
2022-11-09T08:46:00.595Z,100041.38
2022-11-09T08:48:49.023Z,100048.00
2022-11-09T08:51:35.885Z,100038.62
2022-11-09T08:54:22.952Z,100047.78
2022-11-09T08:57:10.545Z,100061.00
2022-11-09T08:59:58.032Z,100060.38
2022-11-09T09:02:44.869Z,100056.56
2022-11-09T09:05:33.665Z,100068.00
2022-11-09T09:08:23.242Z,100060.34
2022-11-09T09:11:10.786Z,100062.38
2022-11-09T09:13:57.918Z,100053.16
2022-11-09T09:16:45.338Z,100051.59
2022-11-09T09:19:32.345Z,100056.94
2022-11-09T09:22:21.305Z,100064.53
2022-11-09T09:25:09.466Z,100076.47
2022-11-09T09:27:56.457Z,100069.22
2022-11-09T09:30:43.398Z,100057.94
2022-11-09T09:33:30.571Z,100064.06
2022-11-09T09:36:18.745Z,100069.12
2022-11-09T09:39:07.306Z,100059.78
2022-11-09T09:41:57.286Z,100061.91
2022-11-09T09:44:50.620Z,100052.69
2022-11-09T09:47:51.059Z,100054.09
2022-11-09T09:50:45.164Z,100059.06
2022-11-09T09:53:35.150Z,100062.53
2022-11-09T09:56:26.439Z,100062.94
2022-11-09T09:59:21.440Z,100055.88
2022-11-09T10:02:18.989Z,100042.09
2022-11-09T10:05:10.093Z,100050.06
2022-11-09T10:08:05.524Z,100042.69
2022-11-09T10:11:05.726Z,100044.22
2022-11-09T10:14:11.679Z,100047.81
2022-11-09T10:17:07.888Z,100050.28
2022-11-09T10:20:05.308Z,100054.63
2022-11-09T10:23:05.090Z,100058.94
2022-11-09T10:26:06.095Z,100061.53
2022-11-09T10:29:15.598Z,100061.03
2022-11-09T10:32:11.488Z,100067.13
2022-11-09T10:35:04.810Z,100054.34
2022-11-09T10:37:55.020Z,100056.19
2022-11-09T10:40:46.653Z,100050.94
2022-11-09T10:43:52.002Z,100053.31
2022-11-09T10:47:08.719Z,100035.94
2022-11-09T10:50:23.844Z,100041.00
2022-11-09T10:57:04.911Z,100029.91
2022-11-09T11:00:17.396Z,100047.25
2022-11-09T11:03:25.470Z,100037.28
2022-11-09T11:06:31.726Z,100032.06
2022-11-09T11:09:37.377Z,100033.91
2022-11-09T11:12:42.912Z,100040.19
2022-11-09T11:15:48.963Z,100041.41
2022-11-09T11:18:56.947Z,100041.91
2022-11-09T11:22:23.990Z,100036.69
2022-11-09T11:25:29.741Z,100040.06
2022-11-09T11:28:43.856Z,100036.94
2022-11-09T11:31:50.015Z,100038.50
2022-11-09T11:35:01.312Z,100023.63
2022-11-09T11:38:22.662Z,100030.56
2022-11-09T11:41:47.929Z,100030.69
2022-11-09T11:45:38.558Z,100033.06
2022-11-09T11:49:11.601Z,100044.53
2022-11-09T11:52:28.234Z,100046.87
2022-11-09T11:55:52.862Z,100039.31
2022-11-09T11:59:30.355Z,100040.34
2022-11-09T12:03:08.303Z,100045.31
2022-11-09T12:06:32.269Z,100046.59
2022-11-09T12:10:04.198Z,100045.16
2022-11-09T12:13:20.997Z,100029.53
2022-11-09T12:16:34.313Z,100039.78
2022-11-09T12:19:52.708Z,100044.50
2022-11-09T12:23:27.151Z,100041.44
2022-11-09T12:27:04.630Z,100033.41
2022-11-09T12:30:17.587Z,100035.78
2022-11-09T12:33:33.989Z,100028.59
2022-11-09T12:36:47.424Z,100010.63
2022-11-09T12:39:55.282Z,100019.66
2022-11-09T12:43:06.801Z,100020.66
2022-11-09T12:46:14.393Z,100014.09
2022-11-09T12:49:33.540Z,100006.56
2022-11-09T12:52:39.669Z,100004.78
2022-11-09T12:55:51.452Z,100007.38
2022-11-09T12:59:23.824Z,100008.38
2022-11-09T13:02:32.318Z,100013.53
2022-11-09T13:05:39.506Z,100012.63
2022-11-09T13:09:01.190Z,100002.38
2022-11-09T13:12:19.006Z,100001.66
2022-11-09T13:15:28.658Z,100008.66
2022-11-09T13:18:53.756Z,99999.50
2022-11-09T13:21:59.133Z,100005.78
2022-11-09T13:25:25.803Z,100012.28
2022-11-09T13:29:11.451Z,100013.56
2022-11-09T13:32:28.898Z,100017.19
2022-11-09T13:36:14.429Z,100017.78
2022-11-09T13:39:32.225Z,100014.19
2022-11-09T13:42:38.037Z,100030.75
2022-11-09T13:45:46.255Z,100014.28
2022-11-09T13:48:54.276Z,100019.16
2022-11-09T13:51:59.652Z,100017.34
2022-11-09T13:55:15.510Z,100020.00
2022-11-09T13:58:27.575Z,100010.09
2022-11-09T14:01:38.396Z,100018.00
2022-11-09T14:04:46.444Z,100027.59
2022-11-09T14:07:51.688Z,100029.12
2022-11-09T14:11:15.036Z,100026.03
2022-11-09T14:14:54.725Z,100032.78
2022-11-09T14:18:13.621Z,100039.00
2022-11-09T14:21:41.377Z,100038.00
2022-11-09T14:27:58.027Z,100036.66
2022-11-09T14:31:03.375Z,100034.97
2022-11-09T14:34:16.374Z,100031.22
2022-11-09T14:37:23.377Z,100037.81
2022-11-09T14:40:31.365Z,100045.88
2022-11-09T14:43:41.740Z,100050.56
2022-11-09T14:46:53.914Z,100058.59
2022-11-09T14:50:00.349Z,100061.97
2022-11-09T14:53:07.730Z,100059.28
2022-11-09T14:56:17.462Z,100057.37
2022-11-09T14:59:32.614Z,100056.88
2022-11-09T15:02:39.336Z,100051.00
2022-11-09T15:05:45.072Z,100058.31
2022-11-09T15:08:58.342Z,100064.16
2022-11-09T15:12:04.095Z,100071.91
2022-11-09T15:15:21.430Z,100078.94
2022-11-09T15:18:33.875Z,100069.78
2022-11-09T15:21:39.699Z,100065.59
2022-11-09T15:24:49.281Z,100070.09
2022-11-09T15:28:20.530Z,100070.06
2022-11-09T15:31:27.959Z,100067.66
2022-11-09T15:34:38.553Z,100065.56
2022-11-09T15:37:53.648Z,100074.22
2022-11-09T15:41:01.129Z,100071.94
2022-11-09T15:44:07.384Z,100074.34
2022-11-09T15:47:23.001Z,100080.16
2022-11-09T15:50:29.088Z,100075.13
2022-11-09T15:53:34.731Z,100077.81
2022-11-09T15:56:42.036Z,100077.91
2022-11-09T15:59:48.371Z,100087.25
2022-11-09T16:02:53.719Z,100091.69
2022-11-09T16:05:59.413Z,100088.81
2022-11-09T16:09:05.349Z,100094.34
2022-11-09T16:12:12.141Z,100094.63
2022-11-09T16:15:17.692Z,100101.16
2022-11-09T16:18:26.174Z,100100.91
2022-11-09T16:21:31.966Z,100099.53
2022-11-09T16:24:37.327Z,100094.63
2022-11-09T16:27:50.678Z,100100.44
2022-11-09T16:30:57.174Z,100112.66
2022-11-09T16:34:02.694Z,100110.25
2022-11-09T16:37:08.150Z,100111.72
2022-11-09T16:40:17.432Z,100114.84
2022-11-09T16:43:24.492Z,100113.62
2022-11-09T16:46:30.588Z,100115.53
2022-11-09T16:49:36.088Z,100122.53
2022-11-09T16:52:41.351Z,100118.59
2022-11-09T16:55:46.656Z,100122.72
2022-11-09T16:58:53.480Z,100125.00
2022-11-09T17:02:00.684Z,100128.28
2022-11-09T17:05:07.521Z,100128.87
2022-11-09T17:08:13.767Z,100133.69
2022-11-09T17:11:20.526Z,100140.88
2022-11-09T17:14:29.237Z,100141.78
2022-11-09T17:17:35.396Z,100137.09
2022-11-09T17:20:44.654Z,100150.50
2022-11-09T17:23:50.977Z,100161.25
2022-11-09T17:26:56.404Z,100155.56
2022-11-09T17:30:03.275Z,100161.94
2022-11-09T17:33:09.372Z,100164.91
2022-11-09T17:36:17.046Z,100162.94
2022-11-09T17:39:28.105Z,100169.28
2022-11-09T17:42:34.966Z,100175.66
2022-11-09T17:45:42.028Z,100180.28
2022-11-09T17:48:49.613Z,100175.06
2022-11-09T17:51:55.559Z,100182.41
2022-11-09T17:55:01.316Z,100179.03
2022-11-09T17:58:06.959Z,100174.81
2022-11-09T18:01:15.874Z,100183.13
2022-11-09T18:04:21.805Z,100185.13
2022-11-09T18:07:27.093Z,100189.50
2022-11-09T18:10:32.627Z,100186.81
2022-11-09T18:13:39.077Z,100187.09
2022-11-09T18:16:46.097Z,100193.75
2022-11-09T18:19:51.719Z,100192.47
2022-11-09T18:22:57.243Z,100197.84
2022-11-09T18:26:03.707Z,100200.50
2022-11-09T18:29:12.181Z,100207.72
2022-11-09T18:32:19.243Z,100204.88
2022-11-09T18:35:25.040Z,100200.22
2022-11-09T18:38:30.898Z,100200.81
2022-11-09T18:41:36.590Z,100205.31
2022-11-09T18:44:42.226Z,100205.16
2022-11-09T18:47:50.793Z,100204.72
2022-11-09T18:50:58.279Z,100204.56
2022-11-09T18:54:04.024Z,100217.16
2022-11-09T18:57:13.729Z,100217.97
2022-11-09T19:00:21.963Z,100224.34
2022-11-09T19:03:29.385Z,100227.31
2022-11-09T19:06:36.801Z,100235.78
2022-11-09T19:09:43.033Z,100233.25
2022-11-09T19:12:48.468Z,100229.16
2022-11-09T19:15:58.324Z,100234.81
2022-11-09T19:19:06.762Z,100239.47
2022-11-09T19:22:19.268Z,100237.78
2022-11-09T19:25:25.390Z,100245.81
2022-11-09T19:28:31.263Z,100242.28
2022-11-09T19:31:38.426Z,100254.00
2022-11-09T19:34:46.731Z,100253.31
2022-11-09T19:37:52.369Z,100257.97
2022-11-09T19:40:58.317Z,100260.91
2022-11-09T19:44:03.607Z,100257.53
2022-11-09T19:47:09.153Z,100263.03
2022-11-09T19:50:16.437Z,100270.94
2022-11-09T19:53:21.772Z,100276.28
2022-11-09T19:56:29.357Z,100278.13
2022-11-09T19:59:36.435Z,100293.66
2022-11-09T20:02:44.492Z,100286.84
2022-11-09T20:05:56.140Z,100300.66
2022-11-09T20:09:01.754Z,100294.03
2022-11-09T20:12:39.832Z,100297.13
2022-11-09T20:15:45.568Z,100310.69
2022-11-09T20:18:51.332Z,100316.56
2022-11-09T20:21:58.183Z,100313.03
2022-11-09T20:25:04.765Z,100318.53
2022-11-09T20:28:10.467Z,100327.44
2022-11-09T20:31:17.611Z,100331.25
2022-11-09T20:34:23.762Z,100345.44
2022-11-09T20:37:31.044Z,100335.00
2022-11-09T20:40:36.413Z,100340.91
2022-11-09T20:43:42.041Z,100328.22
2022-11-09T20:46:47.754Z,100345.28
2022-11-09T20:49:53.171Z,100339.91
2022-11-09T20:53:00.585Z,100344.72
2022-11-09T20:56:06.613Z,100345.28
2022-11-09T20:59:12.156Z,100342.31
2022-11-09T21:02:18.425Z,100351.34
2022-11-09T21:05:24.252Z,100356.97
2022-11-09T21:08:33.056Z,100362.63
2022-11-09T21:12:00.498Z,100359.19
2022-11-09T21:15:07.620Z,100357.38
2022-11-09T21:18:13.532Z,100363.97
2022-11-09T21:21:21.018Z,100371.44
2022-11-09T21:24:45.828Z,100368.06
2022-11-09T21:28:09.037Z,100373.66
2022-11-09T21:31:15.432Z,100376.63
2022-11-09T21:34:21.134Z,100380.28
2022-11-09T21:37:26.669Z,100383.94
2022-11-09T21:40:34.100Z,100394.91
2022-11-09T21:43:39.792Z,100393.34
2022-11-09T21:46:45.282Z,100406.47
2022-11-09T21:49:50.597Z,100415.47
2022-11-09T21:52:55.924Z,100421.94
2022-11-09T21:56:02.797Z,100413.59
2022-11-09T21:59:08.832Z,100423.59
2022-11-09T22:02:14.358Z,100421.88
2022-11-09T22:05:22.952Z,100419.47
2022-11-09T22:08:29.129Z,100427.28
2022-11-09T22:11:53.681Z,100440.44
2022-11-09T22:15:17.068Z,100438.88
2022-11-09T22:18:36.692Z,100432.22
2022-11-09T22:21:43.017Z,100439.66
2022-11-09T22:24:48.862Z,100427.41
2022-11-09T22:27:56.834Z,100432.63
2022-11-09T22:31:02.885Z,100434.31
2022-11-09T22:34:15.687Z,100441.50
2022-11-09T22:37:22.203Z,100441.63
2022-11-09T22:40:27.724Z,100440.50
2022-11-09T22:43:35.657Z,100447.28
2022-11-09T22:46:41.386Z,100455.22
2022-11-09T22:49:46.910Z,100462.12
2022-11-09T22:52:54.133Z,100467.34
2022-11-09T22:56:01.252Z,100468.47
2022-11-09T22:59:08.886Z,100478.06
2022-11-09T23:02:14.535Z,100472.84
2022-11-09T23:05:20.096Z,100476.63
2022-11-09T23:08:25.420Z,100476.72
2022-11-09T23:11:30.858Z,100485.88
2022-11-09T23:14:55.116Z,100488.59
2022-11-09T23:18:19.070Z,100490.28
2022-11-09T23:21:27.711Z,100485.56
2022-11-09T23:24:50.629Z,100498.09
2022-11-09T23:27:56.316Z,100496.50
2022-11-09T23:31:06.257Z,100503.09
2022-11-09T23:34:11.674Z,100509.78
2022-11-09T23:37:17.131Z,100512.47
2022-11-09T23:40:22.746Z,100523.69
2022-11-09T23:43:28.530Z,100521.22
2022-11-09T23:46:35.459Z,100528.56
2022-11-09T23:49:41.504Z,100524.91
2022-11-09T23:52:47.550Z,100536.56
2022-11-09T23:55:53.079Z,100530.00
2022-11-09T23:58:58.438Z,100537.56
